Relevés horaires Bierset (Belgique)


Relevés horaires à Bierset - Samedi 30 Juin 2018
Heure UTC1 Température [°C] Vent [km/h] Hum. [%] Pres.4 [hPa] Visi. [Km] Nébu. [octa] Préc.5 [mm] Cond.
2m. Res. Ros. Dir.2 Vit. Moy. Raf.3
23:00 22.1 22.1 7.9 ESE 5.6 7.4 9.3 40 1013.4(0.6/3h) 30 0/8 -- --
22:00 21.8 21.8 9.0 E 5.6 7.4 13.0 44 1013.3(0.9/3h) 30 0/8 -- --
21:00 22.2 22.2 7.8 NE 9.3 11.1 16.7 40 1013(0.8/3h) 30 0/8 -- --
20:00 23.8 23.8 10.3 NE 9.3 9.3 13.0 42 1012.7(0.5/3h) 30 0/8 -- --
19:00 25.4 25.4 13.1 NE 9.3 11.1 14.8 46 1012.2(-0.3/3h) 30 0/8 -- --
18:00 26.9 26.9 14.5 NE 11.1 11.1 18.5 47 1011.9(-0.6/3h) 30 0/8 0/12h
--
17:00 27.8 27.8 13.9 NE 11.1 11.1 16.7 43 1011.9(-1.0/3h) 30 1/8 -- --
16:00 28.4 28.4 13.0 NE 9.3 11.1 14.8 39 1012.2(-0.9/3h) 30 1/8 -- --
15:00 28.2 28.2 11.0 NE 9.3 9.3 18.5 34 1012.5(-1.1/3h) 30 1/8 -- --
14:00 27.7 27.7 12.2 NE 9.3 9.3 13.0 38 1012.9(-1.2/3h) 30 1/8 -- --
13:00 27.5 27.5 13.4 NNE 9.3 9.3 18.5 42 1013.2(-1.2/3h) 30 1/8 -- --
12:00 26.7 26.7 14.0 NNE 9.3 9.3 14.8 46 1013.6(-1.1/3h) 25 0/8 0/6h
--
11:00 25.3 25.3 13.5 NE 9.3 9.3 13.0 48 1014.3(-0.7/3h) 20 0/8 -- --
10:00 24.0 24.0 14.9 N 7.4 7.4 11.1 57 1014.7(-0.3/3h) 18 0/8 -- --
09:00 22.2 22.2 14.4 NE 5.6 5.6 9.3 61 1015(-0.3/3h) 18 0/8 -- --
08:00 20.1 20.1 14.0 NNE 5.6 5.6 7.4 68 1015.3(-0.3/3h) 18 0/8 -- --
07:00 18.3 18.3 13.8 N 5.6 5.6 7.4 75 1015.4(-0.4/3h) 18 0/8 -- --
06:00 16.5 16.5 13.2 N 3.7 5.6 11.1 81 1015.7(-0.3/3h) 18 0/8 0/12h
--
05:00 15.1 15.1 12.7 N 3.7 5.6 11.1 86 1016(-0.2/3h) 18 0/8 -- --
04:00 14.3 14.3 12.4 NNE 3.7 3.7 5.6 88 1016.1(-0.3/3h) 18 0/8 -- --
03:00 14.3 14.3 12.7 N 3.7 5.6 9.3 90 1016.2(-0.5/3h) 30 0/8 -- --
02:00 14.9 14.9 12.9 N 3.7 5.6 5.6 88 1016.3(-0.6/3h) 30 0/8 -- --
01:00 16.3 16.3 13.8 N 5.6 5.6 5.6 85 1016.3(-0.4/3h) 30 0/8 -- --
00:00 16.8 16.8 13.7 N 3.7 7.4 11.1 82 1016.5(0.2/3h) 30 0/8 0/6h
0/24h
--

1 Coordinated Universal Time. Actuellement il est 01:00 locale et 00:00 UTC.

2 Le vent souffle depuis la direction indiquée vers la direction oposée.

3 Les rafales max. sont disponible 40 min après l'heure du relevé.

4 Pour les stations d'altitude (plus de 600m) le géopotentiel du niveau le plus proche de la pression obligatoire est indiqué.

5 Les stations disposant d'un diffuseur peuvent indiquer "trace". Cela signifie que des précipitations ont touchés le sol mais que la quantité est inférieure à 0.1 mm.

Récapitulatif de la journée
Température [°C] Vent [km/h] Ensoleillement4 [h] Precipitations totale5 [mm] Pression [Hpa]
Min1 Max.2 Moy.3 Max. Min Max.
14.0 28.8 7.9 18.5 0 h 0 min 0 1011.9 1016.5

1 Température minimale relevée entre 18:00 UTC la veille et 18:00 UTC le jour donné.

2 Température maximale relevée entre 06:00 UTC le jour donné et 06:00 UTC le lendemain.

3 Vent moyen de la journée basé sur les relevés horaires.

4 Ensoleillement en heures relevé entre 06:00 UTC la veille et 06:00 UTC le jour donné.

5 Précipitations totales tombées entre 06:00 UTC la jour donné et 06:00 UTC le lendemain.

Graphiques horaires